Flight Track Log - Related Links

Times and Time Zones

All times are in EDT time to prevent confusion due to time zone crossing. See the EJA831 flight status page for this flight to view local times or setup timezone preferences in your user account.

Time Position Orientation Groundspeed Altitude Reporting Facility
EDT Latitude Longitude Course Direction KTS MPH feet Rate Location/Type
Fri 02:55:24 PM 41.7500 -87.8000 160° South 185 213 2,900  Level Chicago TRACON
Fri 02:56:03 PM 41.7233 -87.8328 223° Southwest 180 207 3,200 2,139 Climbing Chicago Center
Fri 02:57:05 PM 41.6742 -87.8519 196° South 203 234 6,500 3,242 Climbing Chicago Center
Fri 02:58:07 PM 41.6061 -87.8186 160° South 260 299 9,900 3,097 Climbing Chicago Center
Fri 02:59:09 PM 41.5303 -87.7806 159° South 290 334 12,900 2,855 Climbing Chicago Center
Fri 03:00:00 PM 41.2972 -87.5146 160° South  Level Estimated
Fri 03:00:11 PM 41.4489 -87.7392 159° South 309 356 15,800  Level Chicago Center
Fri 03:01:13 PM 41.3414 -87.7258 175° South 326 375 18,800 2,613 Climbing Chicago Center
Fri 03:02:15 PM 41.2481 -87.7261 180° South 334 384 21,200 2,274 Climbing Chicago Center
Fri 03:03:17 PM 41.1519 -87.7183 177° South 343 395 23,500 1,645 Climbing Chicago Center
Fri 03:04:19 PM 41.0556 -87.6878 167° South 354 407 24,600 1,056 Climbing Chicago Center
Fri 03:05:22 PM 40.9572 -87.6542 166° South 365 420 25,700 912 Climbing Chicago Center
Fri 03:06:24 PM 40.8386 -87.6172 167° South 365 420 26,500 1,016 Climbing Chicago Center
Fri 03:07:26 PM 40.7356 -87.5839 166° South 378 435 27,800 1,306 Climbing Chicago Center
Fri 03:08:28 PM 40.6292 -87.5503 167° South 389 448 29,200 1,645 Climbing Chicago Center
Fri 03:09:30 PM 40.5211 -87.5169 167° South 397 457 31,200 2,129 Climbing Chicago Center
Fri 03:10:32 PM 40.4192 -87.4864 167° South 386 444 33,600 1,500 Climbing Chicago Center
Fri 03:11:34 PM 40.3164 -87.4511 165° South 376 433 34,300 677 Climbing Chicago Center
Fri 03:12:36 PM 40.2086 -87.4217 168° South 393 452 35,000 385 Climbing Chicago Center
Fri 03:13:23 PM 40.1175 -87.3922 166° South 409 471 35,000  Level Indianapolis Center
Fri 03:14:26 PM 39.9806 -87.3492 166° South 423 487 35,000  Level Indianapolis Center
Fri 03:15:28 PM 39.8650 -87.3136 167° South 427 491 35,000  Level Indianapolis Center
Fri 03:16:30 PM 39.7489 -87.2775 167° South 431 496 35,000  Level Indianapolis Center
Fri 03:17:32 PM 39.6350 -87.2283 162° South 436 502 35,000  Level Indianapolis Center
Fri 03:18:34 PM 39.5217 -87.1744 160° South 437 503 35,000  Level Indianapolis Center
Fri 03:19:36 PM 39.3856 -87.1092 160° South 439 505 35,000  Level Indianapolis Center
Fri 03:20:38 PM 39.2728 -87.0569 160° South 436 502 35,000  Level Indianapolis Center
Fri 03:21:40 PM 39.1589 -87.0047 160° South 437 503 35,000  Level Indianapolis Center
Fri 03:22:42 PM 39.0464 -86.9511 160° South 429 494 35,000  Level Indianapolis Center
Fri 03:23:44 PM 38.9397 -86.9017 160° South 410 472 35,000  Level Indianapolis Center
Fri 03:24:46 PM 38.8328 -86.8511 160° South 408 470 35,000  Level Indianapolis Center
Fri 03:25:48 PM 38.7050 -86.7917 160° South 404 465 35,000  Level Indianapolis Center
Fri 03:26:50 PM 38.5989 -86.7431 160° South 400 460 35,000  Level Indianapolis Center
Fri 03:27:52 PM 38.4908 -86.6919 160° South 407 468 35,000  Level Indianapolis Center
Fri 03:28:54 PM 38.3775 -86.6406 160° South 422 486 35,000  Level Indianapolis Center
Fri 03:29:56 PM 38.2606 -86.5878 160° South 436 502 35,000  Level Indianapolis Center
Fri 03:30:58 PM 38.1447 -86.5353 160° South 437 503 35,000  Level Indianapolis Center
Fri 03:32:00 PM 38.0275 -86.4825 160° South 442 509 35,000  Level Indianapolis Center
Fri 03:33:02 PM 37.9111 -86.4300 160° South 441 507 35,000  Level Indianapolis Center
Fri 03:34:04 PM 37.7883 -86.3758 161° South 441 507 35,000  Level Indianapolis Center
Fri 03:35:06 PM 37.6711 -86.3222 160° South 442 509 35,000  Level Indianapolis Center
Fri 03:36:08 PM 37.5381 -86.2636 161° South 426 490 35,000  Level Indianapolis Center
Fri 03:37:10 PM 37.4250 -86.2136 161° South 426 490 35,000  Level Indianapolis Center
Fri 03:38:12 PM 37.3083 -86.1617 160° South 438 504 35,000  Level Indianapolis Center
Fri 03:39:14 PM 37.1917 -86.1100 161° South 439 505 35,000  Level Indianapolis Center
Fri 03:40:16 PM 37.0725 -86.0575 161° South 447 514 35,000  Level Indianapolis Center
Fri 03:41:18 PM 36.9539 -86.0050 161° South 449 517 35,000  Level Indianapolis Center
Fri 03:42:21 PM 36.8339 -85.9519 161° South 451 519 35,000  Level Indianapolis Center
Fri 03:43:23 PM 36.7139 -85.8989 160° South 453 521 35,000  Level Indianapolis Center
Fri 03:44:25 PM 36.5936 -85.8464 161° South 452 520 35,000  Level Indianapolis Center
Fri 03:45:27 PM 36.4750 -85.7961 161° South 442 509 35,000 -871 Level Indianapolis Center
Fri 03:46:29 PM 36.3350 -85.7353 161° South 444 511 33,200 -968 Descending Indianapolis Center
Fri 03:47:31 PM 36.2222 -85.6872 161° South 434 499 33,000 -83 Descending Indianapolis Center
Fri 03:48:54 PM 36.0628 -85.6211 161° South 433 498 33,000  Level Atlanta Center
Fri 03:49:54 PM 35.9467 -85.5725 161° South 438 504 33,000  Level Atlanta Center
Fri 03:50:54 PM 35.8344 -85.5217 160° South 443 510 33,000 -800 Level Atlanta Center
Fri 03:51:54 PM 35.7203 -85.4764 162° South 443 510 31,400 -1,500 Descending Atlanta Center
Fri 03:52:54 PM 35.6083 -85.4258 160° South 438 504 30,000 -1,200 Descending Atlanta Center
Fri 03:53:54 PM 35.4939 -85.3806 162° South 438 504 29,000 -1,000 Descending Atlanta Center
Fri 03:54:54 PM 35.3797 -85.3303 160° South 438 504 28,000 -1,250 Descending Atlanta Center
Fri 03:55:54 PM 35.2656 -85.2825 161° South 443 510 26,500 -1,650 Descending Atlanta Center
Fri 03:56:54 PM 35.1492 -85.2353 162° South 443 510 24,700 -1,400 Descending Atlanta Center
Fri 03:57:54 PM 35.0411 -85.1881 160° South 437 503 23,700 -1,550 Descending Atlanta Center
Fri 03:58:54 PM 34.9308 -85.1536 166° South 426 490 21,600 -2,150 Descending Atlanta Center
Fri 03:59:54 PM 34.8225 -85.1192 165° South 410 472 19,400 -2,400 Descending Atlanta Center
Fri 04:00:54 PM 34.7250 -85.0775 161° South 393 452 16,800 -2,700 Descending Atlanta Center
Fri 04:01:54 PM 34.6272 -85.0358 161° South 383 441 14,000 -2,750 Descending Atlanta Center
Fri 04:02:54 PM 34.5356 -84.9969 161° South 360 414 11,300 -1,500 Descending Atlanta Center
Fri 04:03:54 PM 34.4483 -84.9633 162° South 341 392 11,000 -700 Descending Atlanta Center
Fri 04:04:54 PM 34.3631 -84.9294 162° South 330 380 9,900 -1,300 Descending Atlanta Center
Fri 04:05:54 PM 34.2922 -84.9011 162° South 303 349 8,400 -950 Descending Atlanta Center
Fri 04:06:54 PM 34.2233 -84.8753 163° South 263 303 8,000 -200 Descending Atlanta Center
Fri 04:07:54 PM 34.1550 -84.8319 152° Southeast 268 308 8,000 -395 Level Atlanta Center
Fri 04:09:41 PM 34.1333 -84.6833 100° East 273 314 6,900 -1,078 Descending Atlanta TRACON
Fri 04:10:41 PM 34.1667 -84.6000 64° Northeast 272 313 5,000 -950 Descending Atlanta TRACON
Fri 04:11:41 PM 34.2000 -84.5167 64° Northeast 280 322 5,000  Level Atlanta TRACON
Fri 04:12:41 PM 34.2333 -84.4333 64° Northeast 281 323 5,000  Level Atlanta TRACON
Fri 04:13:54 PM 34.2531 -84.3378 76° East 272 313 5,000 -586 Level Atlanta Center
Fri 04:14:54 PM 34.1947 -84.2900 146° Southeast 223 257 3,700 -719 Descending Atlanta Center
Fri 04:16:41 PM 34.0833 -84.2333 157° South 223 257 3,000 -251 Descending Atlanta TRACON
Fri 04:17:41 PM 34.0333 -84.2333 180° South 210 242 3,000  Level Atlanta TRACON
Fri 04:18:41 PM 33.9833 -84.2500 195° South 189 217 3,000 -500 Level Atlanta TRACON
Fri 04:20:00 PM 33.8756 -84.3020 202° Southwest  Level Estimated
Fri 04:20:41 PM 33.9000 -84.2833 202° Southwest 125 144 1,500  Level Atlanta TRACON
Fri 04:22:00 PM 33.8756 -84.3020 212° Southwest  Level Estimated
Fri 04:29:00 PM 33.8756 -84.3020 301° West  Level Estimated
Fri 04:30:00 PM 33.8756 -84.3020 301° West  Level Estimated

Login

Don't have an account? Register now (free) for customized features, flight alerts, and more!